Time;durP1;ratioP1;P1;durP2;ratioP2;P2;SDS_P1;SDS_P2;PMS_P1;PMS_P2;Temp;Humidity;BMP_temperature;BMP_pressure;BME280_temperature;BME280_humidity;BME280_pressure;Samples;Min_cycle;Max_cycle;Signal;HPM_P1;HPM_P2
2021/04/15 00:01:13;;;;;;;5.35;2.10;;;1.30;99.90;;;;;;3601377;39;20124;-67
2021/04/15 00:03:39;;;;;;;3.35;1.98;;;1.30;99.90;;;;;;3603037;39;20427;-67
2021/04/15 00:06:11;;;;;;;9.38;1.98;;;1.30;99.90;;;;;;3602414;39;20619;-67
2021/04/15 00:08:37;;;;;;;4.70;2.10;;;1.20;99.90;;;;;;3602262;39;20064;-67
2021/04/15 00:11:04;;;;;;;7.55;2.20;;;1.20;99.90;;;;;;3600762;39;20046;-67
2021/04/15 00:13:39;;;;;;;4.38;1.98;;;1.10;99.90;;;;;;3602165;39;20104;-67
2021/04/15 00:16:05;;;;;;;7.75;2.67;;;1.00;99.90;;;;;;3601305;39;20294;-68
2021/04/15 00:18:32;;;;;;;9.35;2.15;;;1.00;99.90;;;;;;3602835;39;20032;-67
2021/04/15 00:20:58;;;;;;;5.47;2.25;;;1.00;99.90;;;;;;3601582;39;20376;-67
2021/04/15 00:23:24;;;;;;;4.65;1.88;;;1.00;99.90;;;;;;3603745;39;20067;-67
2021/04/15 00:25:50;;;;;;;8.13;2.25;;;1.10;99.90;;;;;;3602598;39;20043;-67
2021/04/15 00:28:17;;;;;;;7.60;2.10;;;1.10;99.90;;;;;;3601347;39;20106;-67
2021/04/15 00:30:43;;;;;;;3.65;1.98;;;1.10;99.90;;;;;;3603291;39;20035;-67
2021/04/15 00:33:10;;;;;;;6.70;2.38;;;1.10;99.90;;;;;;3602225;39;20020;-67
2021/04/15 00:35:37;;;;;;;6.90;2.20;;;1.00;99.90;;;;;;3604030;39;20093;-67
2021/04/15 00:38:05;;;;;;;4.88;2.15;;;1.00;99.90;;;;;;3603221;39;20067;-67
2021/04/15 00:40:33;;;;;;;4.93;2.28;;;1.00;99.90;;;;;;3602061;39;20032;-67
2021/04/15 00:42:59;;;;;;;6.00;2.20;;;0.90;99.90;;;;;;3602306;39;20076;-67
2021/04/15 00:45:31;;;;;;;5.15;2.30;;;0.90;99.90;;;;;;3603359;39;20039;-67
2021/04/15 00:48:26;;;;;;;4.68;2.10;;;0.80;99.90;;;;;;3602724;39;20065;-67
2021/04/15 00:51:09;;;;;;;5.33;2.27;;;0.80;99.90;;;;;;3598229;39;20073;-67
2021/04/15 00:53:47;;;;;;;4.25;2.05;;;0.80;99.90;;;;;;3602653;39;20027;-67
2021/04/15 00:56:13;;;;;;;4.63;1.88;;;0.80;99.90;;;;;;3602684;39;20024;-67
2021/04/15 00:58:40;;;;;;;3.70;2.03;;;0.80;99.90;;;;;;3601276;39;20039;-67
2021/04/15 01:01:08;;;;;;;2.95;1.88;;;0.80;99.90;;;;;;3601520;39;20079;-67
2021/04/15 01:03:35;;;;;;;6.72;2.40;;;0.80;99.90;;;;;;3601704;39;20028;-67
2021/04/15 01:06:01;;;;;;;8.27;2.55;;;0.80;99.90;;;;;;3602253;39;20340;-67
2021/04/15 01:08:27;;;;;;;8.00;2.70;;;0.80;99.90;;;;;;3601518;39;20113;-67
2021/04/15 01:11:13;;;;;;;4.95;2.28;;;0.70;99.90;;;;;;3600843;39;20047;-67
2021/04/15 01:14:14;;;;;;;4.85;2.00;;;0.70;99.90;;;;;;3599180;39;20040;-67
2021/04/15 01:16:55;;;;;;;4.50;2.42;;;0.70;99.90;;;;;;3600883;39;20050;-67
2021/04/15 01:19:44;;;;;;;3.90;2.10;;;0.70;99.90;;;;;;3600682;39;20043;-66
2021/04/15 01:22:40;;;;;;;5.30;1.90;;;0.70;99.90;;;;;;3587504;39;20392;-67
2021/04/15 01:25:10;;;;;;;6.00;2.08;;;0.70;99.90;;;;;;3601890;39;20039;-67
2021/04/15 01:27:49;;;;;;;4.20;2.10;;;0.70;99.90;;;;;;3602065;39;20662;-67
2021/04/15 01:30:41;;;;;;;8.32;2.60;;;0.60;99.90;;;;;;3602786;39;20076;-67
2021/04/15 01:33:34;;;;;;;5.68;2.40;;;0.60;99.90;;;;;;3603963;39;20379;-67
2021/04/15 01:36:15;;;;;;;4.22;1.92;;;0.60;99.90;;;;;;3603108;39;20428;-67
2021/04/15 01:38:47;;;;;;;5.03;1.92;;;0.50;99.90;;;;;;3600907;39;20042;-67
2021/04/15 01:41:28;;;;;;;4.35;2.15;;;0.50;99.90;;;;;;3601247;39;20759;-66
2021/04/15 01:44:38;;;;;;;3.53;2.10;;;0.50;99.90;;;;;;3601285;39;20046;-67
2021/04/15 01:47:10;;;;;;;6.28;2.08;;;0.40;99.90;;;;;;3596481;39;20062;-67
2021/04/15 01:49:41;;;;;;;6.65;2.05;;;0.40;99.90;;;;;;3601255;39;20051;-67
2021/04/15 01:52:13;;;;;;;4.00;1.80;;;0.40;99.90;;;;;;3600736;39;20046;-67
2021/04/15 01:54:50;;;;;;;12.32;2.58;;;0.40;99.90;;;;;;3601132;39;20036;-66
2021/04/15 01:57:28;;;;;;;4.35;2.20;;;0.40;99.90;;;;;;3602464;39;20071;-67
2021/04/15 02:00:12;;;;;;;5.20;2.10;;;0.40;99.90;;;;;;3602356;39;20039;-67
2021/04/15 02:02:45;;;;;;;4.00;1.80;;;0.40;99.90;;;;;;3601038;39;20063;-67
2021/04/15 02:05:27;;;;;;;4.32;2.20;;;0.40;99.90;;;;;;3603801;39;20046;-67
2021/04/15 02:07:58;;;;;;;3.35;2.35;;;0.40;99.90;;;;;;3602143;39;20071;-67
2021/04/15 02:10:25;;;;;;;7.47;2.08;;;0.40;99.90;;;;;;3602149;39;20047;-67
2021/04/15 02:12:54;;;;;;;5.65;2.00;;;0.40;99.90;;;;;;3603717;39;20420;-67
2021/04/15 02:15:28;;;;;;;7.22;2.22;;;0.40;99.90;;;;;;3602639;39;20075;-67
2021/04/15 02:18:03;;;;;;;5.57;2.30;;;0.40;99.90;;;;;;3603324;39;20036;-67
2021/04/15 02:20:29;;;;;;;4.20;2.20;;;0.40;99.90;;;;;;3603018;39;20726;-66
2021/04/15 02:23:03;;;;;;;9.73;2.25;;;0.40;99.90;;;;;;3602215;39;20040;-67
2021/04/15 02:25:37;;;;;;;3.47;2.15;;;0.40;99.90;;;;;;3602392;39;20050;-67
2021/04/15 02:28:07;;;;;;;3.40;1.80;;;0.40;99.90;;;;;;3601513;39;20043;-67
2021/04/15 02:30:45;;;;;;;6.38;2.10;;;0.30;99.90;;;;;;3601564;39;20071;-67
2021/04/15 02:33:29;;;;;;;2.75;1.90;;;0.30;99.90;;;;;;3603419;39;20683;-67
2021/04/15 02:36:00;;;;;;;3.20;2.00;;;0.30;99.90;;;;;;3603890;39;20076;-67
2021/04/15 02:38:34;;;;;;;5.53;2.13;;;0.30;99.90;;;;;;3604836;39;20042;-66
2021/04/15 02:41:04;;;;;;;5.47;1.80;;;0.30;99.90;;;;;;3603786;39;20806;-66
2021/04/15 02:43:35;;;;;;;6.20;2.10;;;0.30;99.90;;;;;;3603463;39;20047;-67
2021/04/15 02:46:05;;;;;;;6.65;2.13;;;0.30;99.90;;;;;;3604485;39;20450;-67
2021/04/15 02:48:36;;;;;;;5.03;2.10;;;0.30;99.90;;;;;;3605101;39;20128;-67
2021/04/15 02:51:06;;;;;;;4.15;2.03;;;0.20;99.90;;;;;;3605250;39;20098;-67
2021/04/15 02:53:44;;;;;;;6.25;2.00;;;0.20;99.90;;;;;;3603268;39;20766;-67
2021/04/15 02:56:34;;;;;;;3.60;2.00;;;0.10;99.90;;;;;;3603500;39;20031;-67
2021/04/15 02:59:31;;;;;;;5.55;2.05;;;0.10;99.90;;;;;;3604528;39;20076;-67
2021/04/15 03:02:11;;;;;;;5.53;2.33;;;0.10;99.90;;;;;;3601891;39;20188;-67
2021/04/15 03:04:39;;;;;;;6.45;2.28;;;0.10;99.90;;;;;;3603427;39;20040;-67
2021/04/15 03:07:06;;;;;;;7.75;2.20;;;0.00;99.90;;;;;;3603617;39;20097;-67
2021/04/15 03:09:34;;;;;;;4.60;2.22;;;0.00;99.90;;;;;;3603295;39;20047;-67
2021/04/15 03:12:20;;;;;;;3.45;2.25;;;0.00;99.90;;;;;;3603576;39;20044;-67
2021/04/15 03:14:54;;;;;;;5.15;2.55;;;0.00;99.90;;;;;;3604494;39;20035;-67
2021/04/15 03:17:22;;;;;;;8.85;2.17;;;0.00;99.90;;;;;;3603154;39;20050;-67
2021/04/15 03:19:56;;;;;;;5.88;2.53;;;0.00;99.90;;;;;;3605435;39;20097;-67
2021/04/15 03:22:32;;;;;;;10.73;2.42;;;0.00;99.90;;;;;;3604281;39;20601;-67
2021/04/15 03:25:00;;;;;;;4.70;2.33;;;0.00;99.90;;;;;;3601845;39;20057;-67
2021/04/15 03:27:58;;;;;;;6.20;2.22;;;0.00;99.90;;;;;;3601904;39;20455;-67
2021/04/15 03:30:26;;;;;;;4.00;2.15;;;0.00;99.90;;;;;;3578990;39;20066;-67
2021/04/15 03:33:16;;;;;;;7.97;2.70;;;0.00;99.90;;;;;;3604278;39;20031;-67
2021/04/15 03:35:59;;;;;;;8.80;3.00;;;0.00;99.90;;;;;;3605956;39;20027;-67
2021/04/15 03:38:39;;;;;;;5.25;2.47;;;0.00;99.90;;;;;;3604011;39;20043;-67
2021/04/15 03:41:05;;;;;;;4.28;2.45;;;0.00;99.90;;;;;;3603398;39;20059;-67
2021/04/15 03:43:38;;;;;;;5.80;2.45;;;0.00;99.90;;;;;;3604536;39;20140;-69
2021/04/15 03:46:10;;;;;;;5.82;2.53;;;0.00;99.90;;;;;;3604716;39;20066;-68
2021/04/15 03:48:45;;;;;;;6.45;2.63;;;0.00;99.90;;;;;;3602020;39;20066;-66
2021/04/15 03:51:13;;;;;;;;;;;0.00;99.90;;;;;;3602880;39;20035;-68
2021/04/15 03:53:50;;;;;;;5.72;2.25;;;0.00;99.90;;;;;;3602993;39;20033;-67
2021/04/15 03:56:27;;;;;;;4.40;2.58;;;0.00;99.90;;;;;;3599571;39;20043;-67
2021/04/15 03:59:02;;;;;;;4.18;2.42;;;0.00;99.90;;;;;;3600218;39;20456;-67
2021/04/15 04:01:33;;;;;;;6.20;2.40;;;0.00;99.90;;;;;;3603279;39;20039;-69
2021/04/15 04:04:05;;;;;;;7.13;2.65;;;-0.10;99.90;;;;;;3601655;39;20042;-68
2021/04/15 04:06:33;;;;;;;6.93;3.15;;;-0.10;99.90;;;;;;3602572;39;20051;-67
2021/04/15 04:09:09;;;;;;;8.30;2.50;;;-0.10;99.90;;;;;;3601766;39;20046;-67
2021/04/15 04:11:35;;;;;;;;;;;-0.10;99.90;;;;;;3601809;39;20034;-66
2021/04/15 04:14:07;;;;;;;4.18;2.35;;;-0.10;99.90;;;;;;3603557;39;20207;-66
2021/04/15 04:17:07;;;;;;;6.65;2.90;;;-0.20;99.90;;;;;;3601410;39;20421;-67
2021/04/15 04:19:46;;;;;;;5.78;2.28;;;-0.10;99.90;;;;;;3592431;39;20040;-67
2021/04/15 04:22:33;;;;;;;6.03;2.63;;;-0.10;99.90;;;;;;3603295;39;20052;-67
2021/04/15 04:25:23;;;;;;;3.58;2.38;;;-0.10;99.90;;;;;;3603218;39;20435;-67
2021/04/15 04:28:01;;;;;;;6.20;2.38;;;-0.10;99.90;;;;;;3600994;39;20044;-67
2021/04/15 04:30:46;;;;;;;6.95;2.28;;;-0.10;99.90;;;;;;3602739;39;20059;-68
2021/04/15 04:33:16;;;;;;;6.72;2.33;;;-0.10;99.90;;;;;;3603526;39;20040;-68
2021/04/15 04:35:45;;;;;;;123.03;43.90;;;0.00;99.90;;;;;;3600361;39;20041;-68
2021/04/15 04:38:12;;;;;;;10.65;4.68;;;0.00;99.90;;;;;;3602858;39;20090;-68
2021/04/15 04:40:53;;;;;;;8.65;2.60;;;0.10;99.90;;;;;;3601890;39;20043;-67
2021/04/15 04:43:49;;;;;;;4.40;2.33;;;0.10;99.90;;;;;;3601746;39;20036;-68
2021/04/15 04:46:30;;;;;;;10.25;2.58;;;0.20;99.90;;;;;;3601647;39;20051;-68
2021/04/15 04:49:01;;;;;;;4.35;2.15;;;0.20;99.90;;;;;;3604898;39;20035;-67
2021/04/15 04:51:49;;;;;;;11.15;2.95;;;0.30;99.90;;;;;;3598770;39;20036;-67
2021/04/15 04:54:18;;;;;;;5.63;2.65;;;0.30;99.90;;;;;;3604999;39;20120;-67
2021/04/15 04:56:50;;;;;;;5.85;2.50;;;0.40;99.90;;;;;;3601116;39;20124;-67
2021/04/15 04:59:20;;;;;;;6.30;2.42;;;0.40;99.90;;;;;;3604110;39;20035;-68
2021/04/15 05:01:46;;;;;;;4.68;2.38;;;0.50;99.90;;;;;;3600878;39;20042;-68
2021/04/15 05:04:14;;;;;;;4.07;2.33;;;0.50;99.90;;;;;;3602420;39;20031;-67
2021/04/15 05:06:43;;;;;;;5.90;2.05;;;0.60;99.90;;;;;;3600334;39;20048;-68
2021/04/15 05:09:18;;;;;;;12.98;3.45;;;0.70;99.90;;;;;;3601141;39;20031;-68
2021/04/15 05:11:48;;;;;;;11.35;3.22;;;0.80;99.90;;;;;;3601936;39;20036;-67
2021/04/15 05:14:18;;;;;;;5.40;2.45;;;0.80;99.90;;;;;;3603329;39;20039;-68
2021/04/15 05:17:15;;;;;;;8.13;2.83;;;1.00;99.90;;;;;;3604112;39;20046;-71
2021/04/15 05:19:41;;;;;;;6.47;3.35;;;1.00;99.90;;;;;;3601624;39;20793;-68
2021/04/15 05:22:09;;;;;;;6.90;2.67;;;1.10;99.90;;;;;;3599753;39;20072;-67
2021/04/15 05:24:45;;;;;;;5.03;2.92;;;1.20;99.90;;;;;;3599177;39;20035;-69
2021/04/15 05:27:15;;;;;;;7.97;2.83;;;1.30;99.90;;;;;;3602013;39;20075;-67
2021/04/15 05:29:43;;;;;;;11.63;3.33;;;1.40;99.90;;;;;;3601840;39;20072;-68
2021/04/15 05:32:15;;;;;;;7.93;2.55;;;1.50;99.90;;;;;;3603536;39;20039;-68
2021/04/15 05:34:51;;;;;;;11.45;2.67;;;1.60;99.90;;;;;;3601714;39;20051;-68
2021/04/15 05:37:20;;;;;;;11.57;3.00;;;1.70;99.90;;;;;;3602687;39;20039;-67
2021/04/15 05:39:47;;;;;;;6.70;3.00;;;1.80;99.90;;;;;;3598572;39;20031;-67
2021/04/15 05:42:39;;;;;;;11.02;3.15;;;1.90;99.90;;;;;;3601624;39;20046;-67
2021/04/15 05:45:13;;;;;;;11.55;3.08;;;2.00;99.90;;;;;;3601479;39;20633;-68
2021/04/15 05:48:00;;;;;;;8.88;2.90;;;2.00;99.90;;;;;;3604421;39;20043;-67
2021/04/15 05:50:34;;;;;;;8.52;2.70;;;2.10;99.90;;;;;;3600125;39;20061;-68
2021/04/15 05:53:22;;;;;;;6.93;2.92;;;2.20;99.90;;;;;;3602217;39;20040;-68
2021/04/15 05:55:57;;;;;;;12.45;3.70;;;2.40;99.90;;;;;;3602922;39;20519;-69
2021/04/15 05:58:48;;;;;;;5.50;2.70;;;2.50;99.90;;;;;;3603450;39;20046;-69
2021/04/15 06:01:33;;;;;;;10.75;3.33;;;2.60;99.90;;;;;;3601234;39;20075;-69
2021/04/15 06:04:13;;;;;;;7.55;3.00;;;2.80;99.90;;;;;;3602757;39;20047;-68
2021/04/15 06:06:40;;;;;;;9.43;3.15;;;2.90;99.90;;;;;;3600146;39;20043;-68
2021/04/15 06:09:07;;;;;;;5.75;2.60;;;3.00;99.90;;;;;;3599528;39;20145;-68
2021/04/15 06:11:50;;;;;;;9.63;3.03;;;3.00;99.90;;;;;;3601643;39;20042;-68
2021/04/15 06:14:25;;;;;;;9.27;2.45;;;3.10;99.90;;;;;;3602952;39;20088;-68
2021/04/15 06:17:10;;;;;;;9.90;2.75;;;3.20;99.90;;;;;;3604449;39;20028;-68
2021/04/15 06:19:37;;;;;;;8.15;3.05;;;3.30;99.90;;;;;;3603648;39;20523;-67
2021/04/15 06:22:25;;;;;;;7.00;2.90;;;3.40;99.90;;;;;;3603691;39;20040;-67
2021/04/15 06:24:57;;;;;;;8.23;3.60;;;3.60;99.90;;;;;;3606409;39;20043;-68
2021/04/15 06:27:23;;;;;;;5.43;2.80;;;3.70;99.90;;;;;;3604384;39;20055;-68
2021/04/15 06:30:14;;;;;;;9.77;3.10;;;4.00;99.90;;;;;;3607502;39;20081;-68
2021/04/15 06:32:53;;;;;;;6.72;2.60;;;3.90;99.90;;;;;;3601930;39;20110;-68
2021/04/15 06:35:28;;;;;;;8.15;2.70;;;4.00;99.90;;;;;;3605549;39;20043;-68
2021/04/15 06:38:21;;;;;;;10.67;2.73;;;4.20;99.90;;;;;;3603963;39;20047;-68
2021/04/15 06:41:09;;;;;;;9.02;2.83;;;4.40;99.90;;;;;;3605090;39;20298;-68
2021/04/15 06:43:49;;;;;;;9.20;2.92;;;4.60;99.90;;;;;;3604768;39;20027;-68
2021/04/15 06:46:57;;;;;;;9.98;2.90;;;4.60;99.90;;;;;;3602535;39;20040;-68
2021/04/15 06:49:51;;;;;;;12.35;2.97;;;4.70;99.90;;;;;;3604380;39;20035;-71
2021/04/15 06:52:48;;;;;;;6.47;3.42;;;4.70;99.90;;;;;;3603056;39;20054;-68
2021/04/15 06:55:25;;;;;;;8.95;3.45;;;4.80;99.90;;;;;;3582285;39;20051;-68
2021/04/15 06:58:08;;;;;;;12.82;2.88;;;5.00;99.90;;;;;;3604967;39;20669;-68
2021/04/15 07:01:12;;;;;;;7.97;3.17;;;5.20;99.90;;;;;;3604440;39;20039;-68
2021/04/15 07:03:59;;;;;;;6.38;2.45;;;5.30;99.90;;;;;;3586882;39;20051;-68
2021/04/15 07:06:56;;;;;;;6.70;2.80;;;5.50;99.90;;;;;;3606737;39;20043;-68
2021/04/15 07:09:45;;;;;;;8.52;3.00;;;5.70;99.90;;;;;;3603605;39;20039;-67
2021/04/15 07:12:51;;;;;;;10.75;3.35;;;5.70;99.90;;;;;;3601314;39;20035;-68
2021/04/15 07:15:41;;;;;;;11.55;3.20;;;5.90;99.90;;;;;;3601094;39;20412;-68
2021/04/15 07:18:23;;;;;;;16.52;5.45;;;6.00;99.90;;;;;;3601486;39;20064;-68
2021/04/15 07:21:13;;;;;;;11.55;2.85;;;6.00;99.90;;;;;;3604316;39;20503;-70
2021/04/15 07:24:20;;;;;;;5.90;2.45;;;6.00;99.90;;;;;;3601222;39;20059;-68
2021/04/15 07:26:52;;;;;;;;;;;6.20;99.90;;;;;;3599466;39;20050;-69
2021/04/15 07:29:29;;;;;;;9.77;2.60;;;6.40;99.90;;;;;;3599640;39;19943;-69
2021/04/15 07:32:11;;;;;;;9.70;3.33;;;6.20;99.90;;;;;;3604123;39;20035;-68
2021/04/15 07:35:14;;;;;;;6.25;2.85;;;6.40;99.90;;;;;;3603692;39;20094;-68
2021/04/15 07:38:17;;;;;;;7.07;2.40;;;6.60;99.90;;;;;;3601003;39;20035;-68
2021/04/15 07:41:07;;;;;;;4.22;2.20;;;6.80;99.90;;;;;;3603636;39;20044;-68
2021/04/15 07:44:16;;;;;;;6.68;2.83;;;6.60;99.90;;;;;;3602675;39;20072;-68
2021/04/15 07:46:49;;;;;;;5.05;2.22;;;6.80;99.90;;;;;;3602476;39;20340;-68
2021/04/15 07:49:40;;;;;;;13.45;2.53;;;6.90;99.90;;;;;;3603119;39;20043;-68
2021/04/15 07:52:38;;;;;;;11.02;2.97;;;7.10;99.90;;;;;;3602253;39;20059;-67
2021/04/15 07:55:34;;;;;;;8.50;2.83;;;7.40;99.90;;;;;;3602203;39;20132;-67
2021/04/15 07:58:02;;;;;;;;;;;7.30;99.90;;;;;;3601628;39;20065;-68
2021/04/15 08:00:54;;;;;;;7.53;2.28;;;7.40;99.90;;;;;;3605339;39;20053;-61
2021/04/15 08:03:51;;;;;;;7.68;2.50;;;7.60;99.90;;;;;;3601422;39;20091;-60
2021/04/15 08:06:38;;;;;;;9.27;3.28;;;7.50;99.90;;;;;;3599948;39;20067;-60
2021/04/15 08:09:28;;;;;;;6.32;2.30;;;7.80;99.90;;;;;;3602928;39;20891;-59
2021/04/15 08:11:54;;;;;;;7.28;1.88;;;7.80;98.60;;;;;;3603127;39;20035;-60
2021/04/15 08:14:23;;;;;;;7.97;2.03;;;8.00;98.90;;;;;;3604449;39;20046;-60
2021/04/15 08:17:07;;;;;;;6.07;1.70;;;8.00;98.80;;;;;;3601881;39;20102;-60
2021/04/15 08:19:39;;;;;;;5.45;1.63;;;8.30;97.80;;;;;;3603276;39;20755;-62
2021/04/15 08:22:24;;;;;;;7.90;1.90;;;8.50;98.20;;;;;;3604826;39;20051;-60
2021/04/15 08:24:52;;;;;;;6.37;1.80;;;8.70;97.50;;;;;;3605129;39;20036;-60
2021/04/15 08:27:48;;;;;;;5.97;1.40;;;8.80;96.30;;;;;;3603049;39;20301;-60
2021/04/15 08:30:19;;;;;;;4.25;1.25;;;8.80;94.70;;;;;;3592794;39;20051;-60
2021/04/15 08:33:03;;;;;;;2.13;1.08;;;9.20;91.40;;;;;;3602854;39;20036;-60
2021/04/15 08:36:06;;;;;;;6.57;1.30;;;9.20;91.50;;;;;;3604218;39;20031;-61
2021/04/15 08:39:01;;;;;;;1.92;0.90;;;9.50;86.20;;;;;;3604348;39;20079;-61
2021/04/15 08:42:10;;;;;;;3.20;0.80;;;9.70;83.40;;;;;;3603385;39;20047;-60
2021/04/15 08:45:04;;;;;;;2.55;1.00;;;9.70;85.60;;;;;;3603119;39;20087;-60
2021/04/15 08:47:52;;;;;;;2.97;1.10;;;9.70;75.90;;;;;;3604002;39;20050;-60
2021/04/15 08:50:21;;;;;;;1.45;0.88;;;9.90;76.60;;;;;;3602700;39;20036;-60
2021/04/15 08:52:53;;;;;;;2.22;0.70;;;10.10;71.70;;;;;;3601615;39;20038;-62
2021/04/15 08:55:39;;;;;;;2.80;0.93;;;10.00;73.90;;;;;;3603542;39;20037;-60
2021/04/15 08:58:42;;;;;;;6.90;0.70;;;9.90;69.20;;;;;;3605113;39;20046;-60
2021/04/15 09:01:35;;;;;;;1.30;0.70;;;9.80;67.70;;;;;;3603652;39;20040;-61
2021/04/15 09:04:12;;;;;;;2.63;0.80;;;9.80;67.70;;;;;;3605900;39;20171;-60
2021/04/15 09:06:56;;;;;;;3.08;0.80;;;9.60;66.90;;;;;;3602895;39;20027;-60
2021/04/15 09:09:37;;;;;;;2.92;0.85;;;9.90;67.30;;;;;;3604912;39;20733;-60
2021/04/15 09:12:37;;;;;;;2.08;0.73;;;10.10;65.90;;;;;;3602061;39;20040;-60
2021/04/15 09:15:10;;;;;;;2.65;0.63;;;10.20;62.80;;;;;;3599068;39;20405;-60
2021/04/15 09:17:42;;;;;;;4.05;0.65;;;10.10;63.00;;;;;;3603360;39;20044;-60
2021/04/15 09:20:34;;;;;;;4.43;0.90;;;10.30;60.60;;;;;;3601688;39;20050;-60
2021/04/15 09:23:21;;;;;;;1.83;0.95;;;10.50;60.00;;;;;;3602846;39;20086;-60
2021/04/15 09:26:17;;;;;;;2.15;0.70;;;10.40;58.30;;;;;;3602338;39;20038;-60
2021/04/15 09:28:43;;;;;;;;;;;10.30;60.70;;;;;;3602519;39;20040;-60
2021/04/15 09:31:29;;;;;;;2.20;0.70;;;10.30;60.70;;;;;;3601682;39;19938;-60
2021/04/15 09:33:58;;;;;;;2.08;0.60;;;10.30;60.80;;;;;;3601746;39;20039;-60
2021/04/15 09:37:08;;;;;;;1.65;0.80;;;10.40;60.60;;;;;;3603621;39;20489;-61
2021/04/15 09:40:04;;;;;;;2.00;0.80;;;10.30;61.70;;;;;;3601367;39;20062;-61
2021/04/15 09:42:58;;;;;;;2.30;0.60;;;10.60;61.50;;;;;;3603438;39;20035;-67
2021/04/15 09:45:49;;;;;;;2.25;0.80;;;10.60;58.50;;;;;;3602048;39;20055;-68
2021/04/15 09:48:41;;;;;;;2.72;0.60;;;10.50;60.10;;;;;;3605404;39;20043;-67
2021/04/15 09:51:40;;;;;;;1.50;0.70;;;10.60;58.70;;;;;;3606821;39;20764;-68
2021/04/15 09:54:25;;;;;;;6.57;0.80;;;10.70;57.30;;;;;;3604387;39;20608;-67
2021/04/15 09:57:03;;;;;;;4.32;0.90;;;10.80;56.30;;;;;;3606799;39;20023;-67
2021/04/15 10:00:02;;;;;;;1.90;0.60;;;11.00;55.70;;;;;;3604111;39;20770;-67
2021/04/15 10:02:36;;;;;;;5.50;0.85;;;11.20;55.20;;;;;;3605891;39;20051;-67
2021/04/15 10:05:07;;;;;;;1.80;0.70;;;11.70;56.80;;;;;;3605682;39;20038;-60
2021/04/15 10:07:49;;;;;;;17.48;4.90;;;11.60;54.80;;;;;;3601420;39;20039;-60
2021/04/15 10:10:36;;;;;;;4.65;1.35;;;12.00;53.80;;;;;;3602780;39;20184;-61
2021/04/15 10:13:21;;;;;;;4.25;1.38;;;12.10;51.50;;;;;;3604135;39;20369;-61
2021/04/15 10:15:53;;;;;;;7.43;0.77;;;11.90;53.00;;;;;;3602846;39;20047;-60
2021/04/15 10:18:37;;;;;;;1.73;0.70;;;11.60;52.30;;;;;;3603335;39;20962;-62
2021/04/15 10:21:05;;;;;;;2.10;0.75;;;11.80;54.00;;;;;;3601342;39;20039;-61
2021/04/15 10:24:00;;;;;;;3.58;0.88;;;12.00;54.10;;;;;;3603406;39;20047;-61
2021/04/15 10:26:47;;;;;;;84.57;4.68;;;12.20;55.20;;;;;;3600520;39;20043;-60
2021/04/15 10:29:49;;;;;;;15.32;1.33;;;12.40;52.90;;;;;;3602595;39;20688;-61
2021/04/15 10:32:53;;;;;;;12.10;1.20;;;12.30;53.80;;;;;;3602066;39;20039;-61
2021/04/15 10:35:33;;;;;;;5.15;0.75;;;12.00;51.70;;;;;;3603471;39;20050;-61
2021/04/15 10:38:05;;;;;;;10.60;0.70;;;12.10;53.30;;;;;;3597911;39;20075;-61
2021/04/15 10:41:01;;;;;;;7.10;1.08;;;11.80;53.90;;;;;;3602094;39;20068;-61
2021/04/15 10:43:42;;;;;;;2.33;0.82;;;11.80;52.60;;;;;;3603859;39;20043;-61
2021/04/15 10:46:32;;;;;;;2.08;0.82;;;12.10;52.90;;;;;;3603066;39;20039;-61
2021/04/15 10:49:09;;;;;;;2.17;0.50;;;12.10;51.40;;;;;;3603462;39;20129;-61
2021/04/15 10:51:54;;;;;;;1.80;0.52;;;12.10;51.00;;;;;;3607741;39;20731;-61
2021/04/15 10:54:24;;;;;;;3.40;0.60;;;12.40;50.90;;;;;;3604765;39;20046;-61
2021/04/15 10:56:54;;;;;;;11.60;1.10;;;12.60;49.50;;;;;;3604181;39;20096;-61
2021/04/15 10:59:37;;;;;;;1.20;0.60;;;12.30;50.20;;;;;;3603567;39;20036;-61
2021/04/15 11:02:22;;;;;;;7.72;0.70;;;12.10;49.30;;;;;;3605647;39;20460;-61
2021/04/15 11:04:48;;;;;;;1.27;0.55;;;12.10;50.40;;;;;;3603859;39;20080;-61
2021/04/15 11:07:18;;;;;;;2.95;0.90;;;12.00;50.30;;;;;;3602761;39;20046;-61
2021/04/15 11:09:50;;;;;;;1.58;0.35;;;11.80;51.10;;;;;;3604192;39;20043;-61
2021/04/15 11:12:16;;;;;;;3.25;0.60;;;12.10;50.70;;;;;;3603417;39;20108;-60
2021/04/15 11:14:45;;;;;;;0.80;0.47;;;12.10;49.90;;;;;;3605373;39;20043;-61
2021/04/15 11:17:18;;;;;;;3.10;0.52;;;11.70;50.50;;;;;;3604917;39;20039;-61
2021/04/15 11:19:46;;;;;;;3.05;0.60;;;11.40;50.80;;;;;;3603955;39;20031;-62
2021/04/15 11:22:21;;;;;;;1.23;0.50;;;11.20;53.00;;;;;;3606055;39;20051;-61
2021/04/15 11:24:47;;;;;;;4.43;0.70;;;10.90;53.90;;;;;;3604709;39;20758;-61
2021/04/15 11:27:32;;;;;;;1.92;0.60;;;10.90;53.60;;;;;;3603190;39;20054;-61
2021/04/15 11:29:58;;;;;;;4.70;2.55;;;11.00;54.20;;;;;;3594479;39;20789;-61
2021/04/15 11:32:39;;;;;;;9.88;1.73;;;11.10;52.80;;;;;;3605870;39;20038;-61
2021/04/15 11:35:16;;;;;;;1.67;0.88;;;11.10;53.80;;;;;;3602545;39;20100;-61
2021/04/15 11:37:44;;;;;;;1.33;0.60;;;11.10;53.40;;;;;;3603931;39;20565;-61
2021/04/15 11:40:22;;;;;;;2.58;0.50;;;10.80;54.20;;;;;;3601863;39;20051;-61
2021/04/15 11:42:49;;;;;;;2.15;1.17;;;11.10;52.90;;;;;;3604614;39;20046;-60
2021/04/15 11:45:32;;;;;;;3.33;1.48;;;11.20;54.50;;;;;;3603506;39;20332;-61
2021/04/15 11:48:28;;;;;;;12.30;1.63;;;11.10;54.00;;;;;;3599944;39;20043;-62
2021/04/15 11:51:15;;;;;;;7.35;0.93;;;11.10;54.50;;;;;;3601808;39;20504;-60
2021/04/15 11:53:46;;;;;;;3.85;0.65;;;11.10;55.10;;;;;;3602834;39;20046;-59
2021/04/15 11:56:28;;;;;;;2.63;0.65;;;11.10;54.90;;;;;;3600432;39;20134;-61
2021/04/15 11:58:54;;;;;;;3.17;0.90;;;11.30;55.60;;;;;;3604612;39;20075;-61
2021/04/15 12:01:29;;;;;;;6.82;1.80;;;11.40;54.30;;;;;;3601233;39;20035;-61
2021/04/15 12:04:00;;;;;;;6.63;0.85;;;11.70;54.10;;;;;;3600519;39;20042;-61
2021/04/15 12:06:35;;;;;;;4.05;0.50;;;11.90;53.80;;;;;;3604699;39;20035;-62
2021/04/15 12:09:04;;;;;;;3.53;1.17;;;11.60;54.20;;;;;;3602657;39;20384;-61
2021/04/15 12:11:35;;;;;;;6.47;1.10;;;11.50;55.10;;;;;;3602225;39;20043;-61
2021/04/15 12:14:10;;;;;;;4.85;1.00;;;11.60;53.70;;;;;;3603484;39;20101;-61
2021/04/15 12:16:53;;;;;;;10.63;0.75;;;11.50;54.40;;;;;;3603777;39;20032;-62
2021/04/15 12:19:33;;;;;;;5.55;0.47;;;11.20;57.40;;;;;;3602656;39;20070;-61
2021/04/15 12:22:27;;;;;;;42.17;17.48;;;11.00;56.40;;;;;;3604076;39;20745;-61
2021/04/15 12:25:17;;;;;;;1.98;0.50;;;10.60;59.80;;;;;;3602509;39;20047;-61
2021/04/15 12:27:48;;;;;;;5.03;1.85;;;10.70;59.00;;;;;;3603010;39;20084;-61
2021/04/15 12:30:26;;;;;;;1.75;0.90;;;10.80;59.80;;;;;;3602577;39;20055;-61
2021/04/15 12:33:39;;;;;;;148.90;9.15;;;10.70;60.80;;;;;;3601910;39;20053;-61
2021/04/15 12:36:16;;;;;;;0.40;0.40;;;10.90;60.70;;;;;;3585828;40;20035;-61
2021/04/15 12:39:06;;;;;;;1.48;0.40;;;10.30;61.40;;;;;;3601334;39;20054;-61
2021/04/15 12:41:32;;;;;;;6.25;0.73;;;9.90;63.60;;;;;;3602170;39;20553;-61
2021/04/15 12:44:10;;;;;;;1.48;1.00;;;10.10;65.20;;;;;;3601476;39;20511;-61
2021/04/15 12:46:36;;;;;;;4.32;1.30;;;10.50;63.60;;;;;;3605475;39;20036;-61
2021/04/15 12:49:10;;;;;;;1.98;0.40;;;10.80;61.50;;;;;;3604361;39;20703;-61
2021/04/15 12:51:59;;;;;;;1.65;0.60;;;10.90;64.20;;;;;;3603099;39;20321;-61
2021/04/15 12:54:28;;;;;;;4.43;0.65;;;10.90;62.20;;;;;;3602354;39;20043;-60
2021/04/15 12:56:59;;;;;;;1.58;0.73;;;10.70;61.30;;;;;;3602686;39;20047;-61
2021/04/15 12:59:35;;;;;;;3.53;0.70;;;10.90;61.90;;;;;;3603288;39;20390;-61
2021/04/15 13:02:03;;;;;;;1.48;0.80;;;10.80;59.90;;;;;;3603616;39;20448;-61
2021/04/15 13:04:34;;;;;;;1.38;0.70;;;10.80;60.50;;;;;;3599391;39;20023;-61
2021/04/15 13:07:00;;;;;;;4.13;0.60;;;10.60;61.90;;;;;;3602957;39;20050;-60
2021/04/15 13:09:42;;;;;;;3.05;0.60;;;10.50;62.20;;;;;;3597765;39;20087;-60
2021/04/15 13:12:34;;;;;;;1.48;0.50;;;10.60;62.90;;;;;;3604183;39;20051;-60
2021/04/15 13:15:27;;;;;;;0.80;0.70;;;10.20;63.90;;;;;;3603235;39;20042;-60
2021/04/15 13:18:03;;;;;;;1.80;1.40;;;10.20;62.80;;;;;;3603362;39;20630;-60
2021/04/15 13:20:29;;;;;;;2.85;1.00;;;10.30;63.30;;;;;;3603948;39;20047;-60
2021/04/15 13:23:15;;;;;;;4.13;2.45;;;10.10;63.80;;;;;;3602445;39;20038;-61
2021/04/15 13:25:50;;;;;;;1.73;1.08;;;10.20;62.30;;;;;;3599337;39;20319;-60
2021/04/15 13:28:17;;;;;;;5.18;0.70;;;10.10;64.20;;;;;;3604233;39;20801;-60
2021/04/15 13:30:43;;;;;;;4.72;2.72;;;9.60;66.60;;;;;;3603318;39;20058;-60
2021/04/15 13:33:22;;;;;;;6.10;3.13;;;9.80;66.30;;;;;;3604144;39;20047;-61
2021/04/15 13:35:53;;;;;;;14.80;2.30;;;9.90;67.80;;;;;;3603664;39;20042;-61
2021/04/15 13:38:43;;;;;;;26.05;7.65;;;10.10;66.90;;;;;;3600697;39;20043;-60
2021/04/15 13:41:28;;;;;;;11.90;5.13;;;10.20;66.20;;;;;;3603009;39;20054;-61
2021/04/15 13:44:03;;;;;;;7.27;3.60;;;10.00;68.20;;;;;;3604172;39;20036;-61
2021/04/15 13:46:31;;;;;;;7.32;3.40;;;10.00;69.10;;;;;;3604350;39;20164;-61
2021/04/15 13:49:09;;;;;;;8.85;2.80;;;10.30;66.20;;;;;;3604602;39;20043;-61
2021/04/15 13:52:05;;;;;;;2.13;1.30;;;10.40;69.70;;;;;;3603795;39;20848;-61
2021/04/15 13:54:33;;;;;;;;;;;10.60;66.80;;;;;;3603775;39;20805;-61